Airport View

Enter AWOS ICAO identifier for current METAR.

ex. KFNL

KCIU 212256Z AUTO 17005KT 10SM FEW045 OVC060 22/20 A2993 RMK AO2 SLP134 T02220200

21 Sep 2019 23:40

Frequency: 127.575

Phone: 906-495-7134

Other Area AWOS: CYAM - KANJ - KMCD - KDRM

TAF CYAM 211940Z 2120/2208 13007KT P6SM FEW004 BKN060 BECMG 2120/2122 18008G18KT FM212200 18010G20KT P6SM SCT015 BKN040 TEMPO 2122/2202 VRB15G25KT 5SM -SHRA BR BKN015 OVC040 PROB30 2122/2202 VRB20G35KT 1SM +TSRA BR BKN007 OVC020CB FM220200 21010G22KT 5SM -SHRA BR BKN007 OVC015 PROB30 2202/2208 VRB20G35KT 1SM +TSRA BR BKN007 OVC020CB RMK NXT FCST BY 220200Z